createdAt,value
2018-01-02T00:01:01.538Z,1.77
2018-01-02T00:03:29.779Z,1.40
2018-01-02T00:05:58.064Z,1.90
2018-01-02T00:08:26.317Z,1.40
2018-01-02T00:10:54.797Z,1.10
2018-01-02T00:13:23.008Z,1.47
2018-01-02T00:15:52.051Z,1.83
2018-01-02T00:18:20.308Z,1.57
2018-01-02T00:20:48.561Z,1.70
2018-01-02T00:23:17.611Z,1.80
2018-01-02T00:25:45.892Z,2.30
2018-01-02T00:28:14.139Z,3.80
2018-01-02T00:30:43.309Z,3.13
2018-01-02T00:33:12.427Z,3.70
2018-01-02T00:35:40.697Z,3.60
2018-01-02T00:38:08.968Z,4.23
2018-01-02T00:40:37.255Z,4.27
2018-01-02T00:43:05.508Z,3.90
2018-01-02T00:45:33.766Z,3.00
2018-01-02T00:48:02.032Z,3.90
2018-01-02T00:50:30.290Z,3.07
2018-01-02T00:53:00.036Z,2.97
2018-01-02T00:55:28.762Z,2.87
2018-01-02T00:57:57.004Z,3.37
2018-01-02T01:00:25.473Z,3.30
2018-01-02T01:02:53.732Z,4.10
2018-01-02T01:05:21.995Z,3.93
2018-01-02T01:07:50.236Z,3.23
2018-01-02T01:10:18.520Z,3.20
2018-01-02T01:12:47.561Z,3.27
2018-01-02T01:15:16.592Z,3.27
2018-01-02T01:17:44.852Z,2.73
2018-01-02T01:20:13.240Z,2.60
2018-01-02T01:22:41.499Z,4.00
2018-01-02T01:25:10.516Z,4.30
2018-01-02T01:27:38.827Z,4.93
2018-01-02T01:30:07.076Z,5.07
2018-01-02T01:32:35.361Z,4.87
2018-01-02T01:35:03.631Z,6.10
2018-01-02T01:37:31.873Z,6.50
2018-01-02T01:40:00.181Z,5.77
2018-01-02T01:42:28.423Z,6.57
2018-01-02T01:44:57.440Z,6.60
2018-01-02T01:47:26.015Z,7.20
2018-01-02T01:49:54.270Z,9.70
2018-01-02T01:52:22.541Z,10.00
2018-01-02T01:54:51.579Z,10.53
2018-01-02T01:57:19.836Z,10.40
2018-01-02T01:59:48.121Z,10.90
2018-01-02T02:02:16.406Z,10.67
2018-01-02T02:04:44.700Z,11.10
2018-01-02T02:07:12.959Z,10.87
2018-01-02T02:09:41.211Z,12.17
2018-01-02T02:12:09.508Z,10.77
2018-01-02T02:14:37.763Z,11.13
2018-01-02T02:17:06.036Z,12.10
2018-01-02T02:19:34.623Z,12.03
2018-01-02T02:22:03.637Z,12.90
2018-01-02T02:24:31.924Z,12.17
2018-01-02T02:27:02.359Z,12.90
2018-01-02T02:29:30.664Z,13.30
2018-01-02T02:31:58.964Z,12.50
2018-01-02T02:34:27.268Z,11.87
2018-01-02T02:36:55.548Z,13.17
2018-01-02T02:39:23.799Z,12.97
2018-01-02T02:41:52.080Z,12.27
2018-01-02T02:44:20.335Z,12.40
2018-01-02T02:46:48.597Z,13.17
2018-01-02T02:49:17.624Z,14.03
2018-01-02T02:51:45.872Z,13.77
2018-01-02T02:54:14.895Z,14.10
2018-01-02T02:56:43.235Z,12.83
2018-01-02T02:59:12.398Z,12.43
2018-01-02T03:01:40.688Z,12.43
2018-01-02T03:04:09.257Z,11.50
2018-01-02T03:06:37.512Z,11.47
2018-01-02T03:09:05.753Z,10.47
2018-01-02T03:11:34.066Z,11.40
2018-01-02T03:14:02.334Z,11.07
2018-01-02T03:16:30.644Z,11.03
2018-01-02T03:18:58.891Z,10.93
2018-01-02T03:21:28.562Z,10.80
2018-01-02T03:23:57.696Z,9.73
2018-01-02T03:26:25.946Z,10.67
2018-01-02T03:28:54.191Z,9.83
2018-01-02T03:31:22.468Z,9.30
2018-01-02T03:33:51.162Z,9.60
2018-01-02T03:36:20.216Z,9.30
2018-01-02T03:38:48.472Z,8.83
2018-01-02T03:41:17.724Z,8.40
2018-01-02T03:43:46.028Z,11.23
2018-01-02T03:46:14.399Z,9.13
2018-01-02T03:48:42.674Z,8.03
2018-01-02T03:51:11.707Z,8.60
2018-01-02T03:53:39.952Z,7.50
2018-01-02T03:56:08.224Z,7.70
2018-01-02T03:58:36.464Z,7.20
2018-01-02T04:01:04.779Z,8.10
2018-01-02T04:03:33.952Z,8.50
2018-01-02T04:06:03.087Z,7.33
2018-01-02T04:08:31.397Z,7.20
2018-01-02T04:10:59.648Z,6.10
2018-01-02T04:13:27.898Z,6.27
2018-01-02T04:15:56.144Z,6.87
2018-01-02T04:18:24.442Z,6.17
2018-01-02T04:20:54.366Z,5.97
2018-01-02T04:23:22.567Z,6.83
2018-01-02T04:25:50.849Z,5.97
2018-01-02T04:28:19.085Z,6.00
2018-01-02T04:30:47.353Z,6.20
2018-01-02T04:33:15.723Z,6.30
2018-01-02T04:35:43.992Z,6.17
2018-01-02T04:38:12.255Z,5.97
2018-01-02T04:40:40.524Z,6.53
2018-01-02T04:43:08.799Z,6.47
2018-01-02T04:45:37.149Z,6.63
2018-01-02T04:48:05.452Z,6.30
2018-01-02T04:50:33.720Z,6.83
2018-01-02T04:53:01.960Z,6.63
2018-01-02T04:55:30.232Z,7.60
2018-01-02T04:57:58.492Z,6.80
2018-01-02T05:00:26.744Z,7.00
2018-01-02T05:02:55.692Z,6.67
2018-01-02T05:05:23.969Z,7.80
2018-01-02T05:07:52.897Z,7.93
2018-01-02T05:10:21.153Z,7.50
2018-01-02T05:12:49.398Z,8.00
2018-01-02T05:15:17.624Z,7.10
2018-01-02T05:17:45.959Z,7.90
2018-01-02T05:20:15.698Z,8.70
2018-01-02T05:22:43.980Z,7.60
2018-01-02T05:25:12.210Z,7.90
2018-01-02T05:27:41.252Z,7.70
2018-01-02T05:30:09.596Z,8.43
2018-01-02T05:32:37.832Z,8.73
2018-01-02T05:35:06.998Z,9.60
2018-01-02T05:37:35.979Z,9.60
2018-01-02T05:40:04.952Z,9.00
2018-01-02T05:42:34.084Z,9.07
2018-01-02T05:45:02.835Z,8.47
2018-01-02T05:47:31.846Z,9.43
2018-01-02T05:50:01.005Z,9.23
2018-01-02T05:52:29.269Z,9.37
2018-01-02T05:54:57.669Z,10.20
2018-01-02T05:57:25.929Z,9.60
2018-01-02T05:59:54.204Z,10.57
2018-01-02T06:02:22.497Z,9.80
2018-01-02T06:04:50.747Z,10.00
2018-01-02T06:07:19.809Z,10.83
2018-01-02T06:09:48.061Z,12.23
2018-01-02T06:12:17.090Z,10.43
2018-01-02T06:14:45.364Z,10.47
2018-01-02T06:17:13.794Z,9.57
2018-01-02T06:19:42.890Z,10.67
2018-01-02T06:22:11.196Z,10.90
2018-01-02T06:24:40.265Z,10.03
2018-01-02T06:27:08.528Z,10.30
2018-01-02T06:29:37.019Z,9.20
2018-01-02T06:32:05.277Z,10.33
2018-01-02T06:34:34.456Z,10.33
2018-01-02T06:37:02.766Z,10.73
2018-01-02T06:39:30.998Z,9.87
2018-01-02T06:41:59.256Z,11.03
2018-01-02T06:44:27.574Z,11.93
2018-01-02T06:46:55.935Z,12.60
2018-01-02T06:49:24.226Z,11.77
2018-01-02T06:51:52.519Z,11.90
2018-01-02T06:54:20.794Z,12.13
2018-01-02T06:56:50.244Z,11.00
2018-01-02T06:59:18.554Z,11.60
2018-01-02T07:01:46.815Z,12.37
2018-01-02T07:04:15.098Z,12.17
2018-01-02T07:06:43.353Z,11.23
2018-01-02T07:09:11.652Z,11.10
2018-01-02T07:11:39.887Z,13.10
2018-01-02T07:14:08.927Z,11.60
2018-01-02T07:16:37.768Z,11.97
2018-01-02T07:19:06.041Z,11.47
2018-01-02T07:21:34.332Z,11.10
2018-01-02T07:24:03.534Z,13.00
2018-01-02T07:26:32.536Z,12.07
2018-01-02T07:29:00.828Z,13.03
2018-01-02T07:31:29.920Z,13.57
2018-01-02T07:33:58.196Z,14.70
2018-01-02T07:36:29.017Z,13.33
2018-01-02T07:38:58.344Z,13.63
2018-01-02T07:41:26.595Z,15.27
2018-01-02T07:43:54.860Z,12.67
2018-01-02T07:46:23.272Z,13.10
2018-01-02T07:48:52.407Z,11.63
2018-01-02T07:51:20.690Z,12.97
2018-01-02T07:53:49.098Z,14.10
2018-01-02T07:56:19.285Z,13.13
2018-01-02T07:58:47.532Z,13.50
2018-01-02T08:01:15.789Z,14.27
2018-01-02T08:03:44.043Z,13.07
2018-01-02T08:06:13.068Z,12.60
2018-01-02T08:08:41.322Z,11.83
2018-01-02T08:11:09.592Z,12.10
2018-01-02T08:13:37.935Z,12.57
2018-01-02T08:16:06.183Z,11.20
2018-01-02T08:18:34.459Z,11.53
2018-01-02T08:21:02.728Z,11.70
2018-01-02T08:23:31.115Z,10.60
2018-01-02T08:25:59.371Z,8.10
2018-01-02T08:28:28.519Z,8.93
2018-01-02T08:30:56.799Z,7.47
2018-01-02T08:33:25.067Z,7.40
2018-01-02T08:35:54.796Z,7.20
2018-01-02T08:38:24.673Z,6.83
2018-01-02T08:40:53.703Z,6.57
2018-01-02T08:43:21.997Z,7.10
2018-01-02T08:45:50.279Z,8.10
2018-01-02T08:48:18.516Z,8.13
2018-01-02T08:50:46.764Z,7.83
2018-01-02T08:53:15.036Z,7.90
2018-01-02T08:55:43.302Z,8.37
2018-01-02T08:58:11.596Z,8.60
2018-01-02T09:00:39.898Z,8.50
2018-01-02T09:03:09.137Z,9.53
2018-01-02T09:05:38.455Z,8.47
2018-01-02T09:08:06.749Z,8.60
2018-01-02T09:10:35.005Z,7.30
2018-01-02T09:16:03.048Z,7.67
2018-01-02T09:18:31.377Z,6.50
2018-01-02T09:21:00.596Z,8.00
2018-01-02T09:23:28.862Z,6.83
2018-01-02T09:25:57.530Z,5.93
2018-01-02T09:28:25.791Z,7.70
2018-01-02T09:30:54.107Z,5.63
2018-01-02T09:33:22.380Z,5.63
2018-01-02T09:35:51.521Z,4.97
2018-01-02T09:38:19.807Z,5.20
2018-01-02T09:40:48.880Z,5.10
2018-01-02T09:43:17.996Z,5.60
2018-01-02T09:45:47.039Z,5.30
2018-01-02T09:48:15.417Z,5.10
2018-01-02T09:50:44.662Z,5.13
2018-01-02T09:53:13.685Z,4.53
2018-01-02T09:55:41.943Z,4.73
2018-01-02T09:58:10.247Z,5.63
2018-01-02T10:00:38.488Z,5.03
2018-01-02T10:03:06.780Z,5.13
2018-01-02T10:05:35.073Z,5.03
2018-01-02T10:08:04.800Z,5.10
2018-01-02T10:10:33.080Z,5.87
2018-01-02T10:13:01.348Z,4.60
2018-01-02T10:15:29.623Z,3.93
2018-01-02T10:17:57.910Z,5.60
2018-01-02T10:20:26.359Z,4.90
2018-01-02T10:22:54.614Z,3.17
2018-01-02T10:25:22.891Z,3.10
2018-01-02T10:27:52.170Z,3.80
2018-01-02T10:30:20.444Z,3.03
2018-01-02T10:32:48.712Z,2.87
2018-01-02T10:35:17.016Z,2.77
2018-01-02T10:37:45.259Z,3.27
2018-01-02T10:40:13.548Z,2.67
2018-01-02T10:42:41.811Z,3.73
2018-01-02T10:45:11.595Z,4.27
2018-01-02T10:47:40.282Z,2.70
2018-01-02T10:50:09.529Z,2.63
2018-01-02T10:52:37.797Z,3.10
2018-01-02T10:55:06.070Z,2.57
2018-01-02T10:57:35.843Z,2.60
2018-01-02T11:00:04.984Z,3.47
2018-01-02T11:02:35.203Z,3.90
2018-01-02T11:05:04.240Z,3.30
2018-01-02T11:07:32.491Z,3.53
2018-01-02T11:10:01.656Z,4.43
2018-01-02T11:12:35.658Z,4.97
2018-01-02T11:15:04.982Z,3.93
2018-01-02T11:17:33.224Z,4.13
2018-01-02T11:20:01.492Z,3.30
2018-01-02T11:22:29.777Z,4.17
2018-01-02T11:24:58.201Z,4.50
2018-01-02T11:27:26.465Z,4.17
2018-01-02T11:29:55.608Z,4.00
2018-01-02T11:32:23.940Z,4.50
2018-01-02T11:34:52.197Z,4.10
2018-01-02T11:37:20.469Z,4.13
2018-01-02T11:39:50.244Z,4.57
2018-01-02T11:42:18.524Z,4.50
2018-01-02T11:44:46.840Z,3.50
2018-01-02T11:47:15.128Z,3.47
2018-01-02T11:49:43.416Z,4.00
2018-01-02T11:52:12.680Z,4.13
2018-01-02T11:54:40.919Z,3.90
2018-01-02T11:57:09.212Z,3.60
2018-01-02T11:59:37.521Z,4.00
2018-01-02T12:02:06.581Z,3.70
2018-01-02T12:04:34.834Z,3.77
2018-01-02T12:07:03.364Z,4.23
2018-01-02T12:09:31.783Z,3.40
2018-01-02T12:12:00.863Z,3.00
2018-01-02T12:14:29.136Z,3.33
2018-01-02T12:16:58.209Z,2.40
2018-01-02T12:19:26.515Z,2.63
2018-01-02T12:21:54.760Z,2.03
2018-01-02T12:24:23.247Z,1.83
2018-01-02T12:26:51.528Z,2.93
2018-01-02T12:29:19.772Z,2.97
2018-01-02T12:31:48.122Z,2.83
2018-01-02T12:34:16.585Z,3.13
2018-01-02T12:36:44.855Z,2.50
2018-01-02T12:39:13.137Z,4.17
2018-01-02T12:41:41.462Z,2.93
2018-01-02T12:44:10.977Z,3.77
2018-01-02T12:46:46.888Z,3.00
2018-01-02T12:49:15.136Z,3.70
2018-01-02T12:51:45.160Z,3.73
2018-01-02T12:54:13.414Z,3.67
2018-01-02T12:56:41.733Z,3.40
2018-01-02T12:59:10.191Z,4.10
2018-01-02T13:01:38.462Z,4.10
2018-01-02T13:04:06.717Z,4.73
2018-01-02T13:06:35.012Z,3.97
2018-01-02T13:09:03.281Z,3.90
2018-01-02T13:11:32.318Z,4.77
2018-01-02T13:14:00.692Z,4.60
2018-01-02T13:16:29.832Z,4.57
2018-01-02T13:18:58.870Z,4.33
2018-01-02T13:21:27.184Z,5.47
2018-01-02T13:23:56.169Z,4.40
2018-01-02T13:26:25.346Z,4.53
2018-01-02T13:28:53.608Z,4.70
2018-01-02T13:31:22.412Z,4.20
2018-01-02T13:33:50.669Z,4.30
2018-01-02T13:36:18.929Z,4.00
2018-01-02T13:38:47.167Z,4.40
2018-01-02T13:41:16.293Z,3.70
2018-01-02T13:43:44.753Z,3.80
2018-01-02T13:46:15.088Z,3.70
2018-01-02T13:48:43.428Z,4.17
2018-01-02T13:51:13.290Z,3.50
2018-01-02T13:53:41.649Z,3.80
2018-01-02T13:56:09.876Z,2.70
2018-01-02T13:58:39.075Z,2.60
2018-01-02T14:01:07.558Z,3.33
2018-01-02T14:03:36.524Z,3.10
2018-01-02T14:06:04.786Z,2.60
2018-01-02T14:08:33.089Z,2.37
2018-01-02T14:11:01.450Z,2.93
2018-01-02T14:13:29.682Z,3.30
2018-01-02T14:15:58.708Z,2.90
2018-01-02T14:18:26.997Z,2.70
2018-01-02T14:20:55.265Z,3.97
2018-01-02T14:23:23.515Z,2.13
2018-01-02T14:25:51.766Z,2.37
2018-01-02T14:28:20.858Z,2.30
2018-01-02T14:30:49.131Z,1.80
2018-01-02T14:33:21.363Z,1.40
2018-01-02T14:35:49.619Z,2.23
2018-01-02T14:38:17.873Z,1.70
2018-01-02T14:40:46.160Z,1.87
2018-01-02T14:43:15.378Z,1.83
2018-01-02T14:45:43.645Z,2.00
2018-01-02T14:48:11.887Z,1.73
2018-01-02T14:50:40.937Z,1.90
2018-01-02T14:53:09.214Z,1.80
2018-01-02T14:55:37.536Z,3.30
2018-01-02T14:58:06.560Z,2.80
2018-01-02T15:00:34.816Z,1.60
2018-01-02T15:03:03.127Z,1.83
2018-01-02T15:05:32.205Z,2.27
2018-01-02T15:08:01.358Z,2.73
2018-01-02T15:10:30.657Z,2.23
2018-01-02T15:12:59.039Z,2.77
2018-01-02T15:15:27.293Z,2.40
2018-01-02T15:17:55.550Z,2.27
2018-01-02T15:20:24.655Z,2.27
2018-01-02T15:22:52.982Z,2.33
2018-01-02T15:25:22.124Z,2.23
2018-01-02T15:27:50.377Z,2.13
2018-01-02T15:30:18.677Z,2.50
2018-01-02T15:32:47.203Z,2.60
2018-01-02T15:35:19.978Z,2.40
2018-01-02T15:37:49.273Z,2.27
2018-01-02T15:40:18.303Z,2.40
2018-01-02T15:42:46.597Z,2.20
2018-01-02T15:45:14.837Z,2.70
2018-01-02T15:47:43.151Z,2.73
2018-01-02T15:50:12.405Z,2.63
2018-01-02T15:52:40.675Z,4.20
2018-01-02T15:55:08.957Z,2.33
2018-01-02T15:57:38.092Z,3.60
2018-01-02T16:00:06.423Z,1.87
2018-01-02T16:02:36.524Z,2.80
2018-01-02T16:05:04.891Z,2.63
2018-01-02T16:07:33.136Z,2.97
2018-01-02T16:10:02.109Z,2.87
2018-01-02T16:12:31.156Z,3.20
2018-01-02T16:14:59.421Z,5.50
2018-01-02T16:17:28.528Z,2.53
2018-01-02T16:19:56.789Z,2.20
2018-01-02T16:22:25.047Z,3.93
2018-01-02T16:24:53.327Z,3.60
2018-01-02T16:27:21.567Z,2.90
2018-01-02T16:29:49.849Z,2.50
2018-01-02T16:32:18.118Z,2.83
2018-01-02T16:34:46.637Z,2.13
2018-01-02T16:37:14.932Z,2.10
2018-01-02T16:39:43.210Z,2.20
2018-01-02T16:42:11.697Z,2.70
2018-01-02T16:44:40.001Z,2.90
2018-01-02T16:47:08.258Z,2.40
2018-01-02T16:49:36.523Z,2.20
2018-01-02T16:52:05.696Z,2.60
2018-01-02T16:54:33.984Z,2.67
2018-01-02T16:57:02.249Z,1.83
2018-01-02T16:59:30.539Z,2.40
2018-01-02T17:01:59.398Z,2.30
2018-01-02T17:04:28.570Z,2.83
2018-01-02T17:06:56.842Z,3.00
2018-01-02T17:09:26.142Z,2.90
2018-01-02T17:11:54.418Z,2.30
2018-01-02T17:14:22.689Z,2.30
2018-01-02T17:16:50.934Z,2.30
2018-01-02T17:19:19.384Z,3.00
2018-01-02T17:21:48.476Z,3.20
2018-01-02T17:24:18.678Z,3.30
2018-01-02T17:26:47.563Z,3.63
2018-01-02T17:29:17.274Z,3.70
2018-01-02T17:31:46.376Z,2.50
2018-01-02T17:34:15.065Z,1.87
2018-01-02T17:36:43.934Z,2.53
2018-01-02T17:39:12.539Z,2.50
2018-01-02T17:41:41.489Z,2.53
2018-01-02T17:44:10.211Z,2.97
2018-01-02T17:46:39.104Z,2.73
2018-01-02T17:49:07.785Z,2.43
2018-01-02T17:51:37.925Z,2.90
2018-01-02T17:54:06.572Z,2.30
2018-01-02T17:56:35.083Z,3.33
2018-01-02T17:59:03.755Z,2.33
2018-01-02T18:01:32.354Z,2.40
2018-01-02T18:04:00.678Z,2.67
2018-01-02T18:06:29.049Z,3.20
2018-01-02T18:08:57.298Z,4.50
2018-01-02T18:11:25.978Z,2.23
2018-01-02T18:13:56.553Z,2.47
2018-01-02T18:16:24.888Z,2.73
2018-01-02T18:18:53.197Z,3.60
2018-01-02T18:21:21.525Z,3.10
2018-01-02T18:23:50.683Z,3.57
2018-01-02T18:26:18.959Z,2.90
2018-01-02T18:28:47.229Z,2.80
2018-01-02T18:31:15.663Z,2.63
2018-01-02T18:33:44.731Z,2.67
2018-01-02T18:36:12.991Z,2.67
2018-01-02T18:38:41.258Z,3.20
2018-01-02T18:41:09.552Z,2.43
2018-01-02T18:43:38.584Z,3.03
2018-01-02T18:46:07.816Z,2.67
2018-01-02T18:48:36.117Z,3.50
2018-01-02T18:51:05.141Z,3.13
2018-01-02T18:53:33.451Z,3.07
2018-01-02T18:56:01.820Z,2.80
2018-01-02T18:58:30.114Z,2.57
2018-01-02T19:00:58.442Z,2.50
2018-01-02T19:03:26.698Z,2.90
2018-01-02T19:05:54.973Z,2.83
2018-01-02T19:08:23.405Z,3.00
2018-01-02T19:10:52.516Z,2.63
2018-01-02T19:13:21.982Z,2.27
2018-01-02T19:15:50.242Z,2.87
2018-01-02T19:18:18.697Z,2.97
2018-01-02T19:20:47.037Z,2.43
2018-01-02T19:23:15.305Z,3.10
2018-01-02T19:25:43.587Z,3.60
2018-01-02T19:28:12.766Z,2.70
2018-01-02T19:30:41.006Z,2.90
2018-01-02T19:33:09.356Z,3.53
2018-01-02T19:35:37.795Z,2.47
2018-01-02T19:38:06.904Z,2.00
2018-01-02T19:40:35.144Z,3.87
2018-01-02T19:43:03.448Z,3.13
2018-01-02T19:45:33.336Z,3.27
2018-01-02T19:48:01.603Z,2.37
2018-01-02T19:50:29.921Z,3.20
2018-01-02T19:53:00.121Z,2.80
2018-01-02T19:55:28.515Z,2.67
2018-01-02T19:57:56.771Z,2.70
2018-01-02T20:00:25.078Z,2.10
2018-01-02T20:02:53.418Z,1.90
2018-01-02T20:05:24.494Z,2.03
2018-01-02T20:07:53.720Z,2.00
2018-01-02T20:10:22.166Z,2.10
2018-01-02T20:12:52.395Z,1.53
2018-01-02T20:15:20.700Z,1.50
2018-01-02T20:17:49.148Z,1.53
2018-01-02T20:20:19.683Z,1.83
2018-01-02T20:22:49.722Z,1.53
2018-01-02T20:25:20.800Z,1.33
2018-01-02T20:27:49.181Z,1.23
2018-01-02T20:30:17.549Z,0.93
2018-01-02T20:32:45.972Z,0.83
2018-01-02T20:35:14.262Z,0.60
2018-01-02T20:37:42.485Z,1.17
2018-01-02T20:40:10.759Z,1.70
2018-01-02T20:42:40.574Z,1.87
2018-01-02T20:45:08.861Z,1.10
2018-01-02T20:47:37.089Z,1.30
2018-01-02T20:50:05.959Z,0.70
2018-01-02T20:52:34.212Z,0.90
2018-01-02T20:55:02.466Z,0.97
2018-01-02T20:57:30.788Z,1.53
2018-01-02T20:59:59.294Z,1.00
2018-01-02T21:02:27.546Z,1.00
2018-01-02T21:04:55.873Z,0.90
2018-01-02T21:07:24.817Z,1.03
2018-01-02T21:09:53.275Z,0.93
2018-01-02T21:12:21.527Z,1.03
2018-01-02T21:14:49.760Z,0.77
2018-01-02T21:17:18.021Z,1.00
2018-01-02T21:19:47.660Z,0.87
2018-01-02T21:22:16.101Z,1.03
2018-01-02T21:24:44.488Z,1.03
2018-01-02T21:27:12.966Z,1.00
2018-01-02T21:29:41.454Z,0.97
2018-01-02T21:32:09.933Z,1.10
2018-01-02T21:34:38.990Z,0.63
2018-01-02T21:37:08.836Z,1.10
2018-01-02T21:39:37.188Z,1.33
2018-01-02T21:42:05.460Z,0.80
2018-01-02T21:44:33.800Z,0.77
2018-01-02T21:47:02.086Z,1.37
2018-01-02T21:49:31.086Z,0.80
2018-01-02T21:51:59.353Z,0.87
2018-01-02T21:54:28.501Z,1.00
2018-01-02T21:56:56.895Z,1.20
2018-01-02T21:59:25.269Z,1.13
2018-01-02T22:01:53.546Z,1.33
2018-01-02T22:04:22.091Z,1.00
2018-01-02T22:06:50.351Z,2.17
2018-01-02T22:09:18.654Z,0.87
2018-01-02T22:11:48.091Z,0.90
2018-01-02T22:14:16.568Z,1.20
2018-01-02T22:16:48.323Z,1.10
2018-01-02T22:19:16.572Z,1.07
2018-01-02T22:21:45.695Z,1.13
2018-01-02T22:24:14.137Z,0.93
2018-01-02T22:26:42.407Z,0.87
2018-01-02T22:29:10.664Z,0.93
2018-01-02T22:31:39.816Z,1.30
2018-01-02T22:34:08.076Z,0.83
2018-01-02T22:36:37.608Z,1.00
2018-01-02T22:39:05.889Z,0.90
2018-01-02T22:41:34.420Z,0.60
2018-01-02T22:44:02.680Z,1.30
2018-01-02T22:46:30.919Z,1.10
2018-01-02T22:48:59.264Z,0.90
2018-01-02T22:51:27.519Z,0.90
2018-01-02T22:53:55.765Z,1.07
2018-01-02T22:56:24.034Z,0.80
2018-01-02T22:58:52.290Z,0.70
2018-01-02T23:01:20.575Z,0.90
2018-01-02T23:03:48.850Z,0.60
2018-01-02T23:06:17.331Z,0.70
2018-01-02T23:08:45.550Z,0.53
2018-01-02T23:11:13.817Z,0.87
2018-01-02T23:13:42.063Z,1.00
2018-01-02T23:16:10.351Z,0.87
2018-01-02T23:18:38.652Z,0.80
2018-01-02T23:21:06.916Z,0.73
2018-01-02T23:23:36.590Z,0.50
2018-01-02T23:26:04.856Z,0.50
2018-01-02T23:28:33.122Z,0.50
2018-01-02T23:31:01.376Z,0.40
2018-01-02T23:33:29.627Z,0.60
2018-01-02T23:35:58.070Z,0.47
2018-01-02T23:38:26.565Z,0.70
2018-01-02T23:40:54.785Z,0.70
2018-01-02T23:43:23.033Z,0.67
2018-01-02T23:45:52.113Z,0.60
2018-01-02T23:48:20.360Z,0.50
2018-01-02T23:50:48.872Z,0.50
2018-01-02T23:53:17.129Z,0.50
2018-01-02T23:55:45.397Z,0.40
2018-01-02T23:58:13.665Z,0.83
